sensor_id;sensor_type;location;lat;lon;timestamp;pressure;altitude;pressure_sealevel;temperature;humidity
51229;BME280;37304;52.216;6.874;2022-07-06T00:04:58;102140.50;;;13.32;100.00
51229;BME280;37304;52.216;6.874;2022-07-06T00:09:59;102150.19;;;13.18;100.00
51229;BME280;37304;52.216;6.874;2022-07-06T00:14:59;102137.16;;;13.13;100.00
51229;BME280;37304;52.216;6.874;2022-07-06T00:20:00;102144.19;;;12.99;100.00
51229;BME280;37304;52.216;6.874;2022-07-06T00:25:00;102139.91;;;12.93;100.00
51229;BME280;37304;52.216;6.874;2022-07-06T00:30:00;102146.00;;;12.87;100.00
51229;BME280;37304;52.216;6.874;2022-07-06T00:35:01;102153.00;;;12.82;100.00
51229;BME280;37304;52.216;6.874;2022-07-06T00:40:02;102149.56;;;12.69;100.00
51229;BME280;37304;52.216;6.874;2022-07-06T00:45:02;102160.00;;;12.69;100.00
51229;BME280;37304;52.216;6.874;2022-07-06T00:50:04;102160.00;;;12.69;100.00
51229;BME280;37304;52.216;6.874;2022-07-06T00:55:15;102155.66;;;12.68;100.00
51229;BME280;37304;52.216;6.874;2022-07-06T01:00:18;102147.84;;;12.66;100.00
51229;BME280;37304;52.216;6.874;2022-07-06T01:05:19;102140.91;;;12.61;100.00
51229;BME280;37304;52.216;6.874;2022-07-06T01:10:20;102154.81;;;12.66;100.00
51229;BME280;37304;52.216;6.874;2022-07-06T01:15:23;102152.19;;;12.67;100.00
51229;BME280;37304;52.216;6.874;2022-07-06T01:20:25;102160.84;;;12.74;100.00
51229;BME280;37304;52.216;6.874;2022-07-06T01:25:25;102148.69;;;12.72;100.00
51229;BME280;37304;52.216;6.874;2022-07-06T01:30:26;102151.28;;;12.73;100.00
51229;BME280;37304;52.216;6.874;2022-07-06T01:35:29;102153.06;;;12.70;100.00
51229;BME280;37304;52.216;6.874;2022-07-06T01:40:31;102146.13;;;12.65;100.00
51229;BME280;37304;52.216;6.874;2022-07-06T01:45:32;102147.91;;;12.56;100.00
51229;BME280;37304;52.216;6.874;2022-07-06T01:50:33;102140.94;;;12.53;100.00
51229;BME280;37304;52.216;6.874;2022-07-06T01:55:33;102143.59;;;12.42;100.00
51229;BME280;37304;52.216;6.874;2022-07-06T02:00:34;102138.38;;;12.37;100.00
51229;BME280;37304;52.216;6.874;2022-07-06T02:05:34;102141.03;;;12.31;100.00
51229;BME280;37304;52.216;6.874;2022-07-06T02:10:34;102141.03;;;12.31;100.00
51229;BME280;37304;52.216;6.874;2022-07-06T02:15:35;102134.91;;;12.35;100.00
51229;BME280;37304;52.216;6.874;2022-07-06T02:20:35;102133.19;;;12.42;100.00
51229;BME280;37304;52.216;6.874;2022-07-06T02:25:35;102134.84;;;12.51;100.00
51229;BME280;37304;52.216;6.874;2022-07-06T02:30:36;102137.47;;;12.52;100.00
51229;BME280;37304;52.216;6.874;2022-07-06T02:35:36;102120.09;;;12.55;100.00
51229;BME280;37304;52.216;6.874;2022-07-06T02:40:42;102128.72;;;12.63;100.00
51229;BME280;37304;52.216;6.874;2022-07-06T02:45:43;102128.72;;;12.66;100.00
51229;BME280;37304;52.216;6.874;2022-07-06T02:50:43;102131.28;;;12.72;100.00
51229;BME280;37304;52.216;6.874;2022-07-06T02:55:43;102136.53;;;12.74;100.00
51229;BME280;37304;52.216;6.874;2022-07-06T03:00:44;102133.88;;;12.80;100.00
51229;BME280;37304;52.216;6.874;2022-07-06T03:05:44;102133.88;;;12.83;100.00
51229;BME280;37304;52.216;6.874;2022-07-06T03:10:46;102150.34;;;12.90;100.00
51229;BME280;37304;52.216;6.874;2022-07-06T03:15:47;102149.44;;;12.97;100.00
51229;BME280;37304;52.216;6.874;2022-07-06T03:20:47;102150.28;;;13.02;100.00
51229;BME280;37304;52.216;6.874;2022-07-06T03:25:47;102154.59;;;13.09;100.00
51229;BME280;37304;52.216;6.874;2022-07-06T03:30:48;102154.59;;;13.09;100.00
51229;BME280;37304;52.216;6.874;2022-07-06T03:35:48;102157.16;;;13.14;100.00
51229;BME280;37304;52.216;6.874;2022-07-06T03:40:49;102149.31;;;13.16;100.00
51229;BME280;37304;52.216;6.874;2022-07-06T03:45:49;102151.97;;;13.11;100.00
51229;BME280;37304;52.216;6.874;2022-07-06T03:50:49;102154.53;;;13.16;100.00
51229;BME280;37304;52.216;6.874;2022-07-06T03:55:50;102152.78;;;13.21;100.00
51229;BME280;37304;52.216;6.874;2022-07-06T04:01:09;102152.75;;;13.22;100.00
51229;BME280;37304;52.216;6.874;2022-07-06T04:06:09;102152.75;;;13.22;100.00
51229;BME280;37304;52.216;6.874;2022-07-06T04:11:09;102158.81;;;13.26;100.00
51229;BME280;37304;52.216;6.874;2022-07-06T04:16:10;102148.34;;;13.32;100.00
51229;BME280;37304;52.216;6.874;2022-07-06T04:21:10;102152.63;;;13.39;100.00
51229;BME280;37304;52.216;6.874;2022-07-06T04:26:10;102157.84;;;13.46;100.00
51229;BME280;37304;52.216;6.874;2022-07-06T04:31:11;102158.66;;;13.51;100.00
51229;BME280;37304;52.216;6.874;2022-07-06T04:36:15;102158.59;;;13.62;100.00
51229;BME280;37304;52.216;6.874;2022-07-06T04:41:15;102152.50;;;13.64;100.00
51229;BME280;37304;52.216;6.874;2022-07-06T04:46:15;102157.63;;;13.72;100.00
51229;BME280;37304;52.216;6.874;2022-07-06T04:51:16;102151.53;;;13.73;100.00
51229;BME280;37304;52.216;6.874;2022-07-06T04:56:16;102160.19;;;13.78;100.00
51229;BME280;37304;52.216;6.874;2022-07-06T05:01:16;102148.81;;;13.87;100.00
51229;BME280;37304;52.216;6.874;2022-07-06T05:06:17;102156.59;;;13.90;100.00
51229;BME280;37304;52.216;6.874;2022-07-06T05:11:18;102156.56;;;13.93;100.00
51229;BME280;37304;52.216;6.874;2022-07-06T05:16:18;102160.00;;;14.00;100.00
51229;BME280;37304;52.216;6.874;2022-07-06T05:21:18;102167.78;;;14.05;100.00
51229;BME280;37304;52.216;6.874;2022-07-06T05:26:19;102169.44;;;14.12;100.00
51229;BME280;37304;52.216;6.874;2022-07-06T05:31:19;102171.13;;;14.19;100.00
51229;BME280;37304;52.216;6.874;2022-07-06T05:36:19;102178.97;;;14.19;100.00
51229;BME280;37304;52.216;6.874;2022-07-06T05:41:20;102183.44;;;14.08;100.00
51229;BME280;37304;52.216;6.874;2022-07-06T05:46:20;102177.22;;;14.20;100.00
51229;BME280;37304;52.216;6.874;2022-07-06T05:51:20;102172.81;;;14.26;100.00
51229;BME280;37304;52.216;6.874;2022-07-06T05:56:21;102175.25;;;14.40;100.00
51229;BME280;37304;52.216;6.874;2022-07-06T06:01:21;102188.44;;;14.33;100.00
51229;BME280;37304;52.216;6.874;2022-07-06T06:06:21;102189.91;;;14.55;100.00
51229;BME280;37304;52.216;6.874;2022-07-06T06:11:22;102194.16;;;14.67;100.00
51229;BME280;37304;52.216;6.874;2022-07-06T06:16:22;102193.13;;;14.79;100.00
51229;BME280;37304;52.216;6.874;2022-07-06T06:21:22;102197.16;;;15.07;100.00
51229;BME280;37304;52.216;6.874;2022-07-06T06:26:23;102196.97;;;15.21;100.00
51229;BME280;37304;52.216;6.874;2022-07-06T06:31:23;102203.50;;;15.51;100.00
51229;BME280;37304;52.216;6.874;2022-07-06T06:36:23;102210.31;;;15.63;100.00
51229;BME280;37304;52.216;6.874;2022-07-06T06:41:24;102211.66;;;15.89;100.00
51229;BME280;37304;52.216;6.874;2022-07-06T06:46:24;102226.88;;;16.17;100.00
51229;BME280;37304;52.216;6.874;2022-07-06T06:51:24;102230.44;;;16.14;100.00
51229;BME280;37304;52.216;6.874;2022-07-06T06:56:25;102226.47;;;16.40;100.00
51229;BME280;37304;52.216;6.874;2022-07-06T07:01:25;102235.31;;;16.80;99.38
51229;BME280;37304;52.216;6.874;2022-07-06T07:06:25;102236.50;;;17.09;97.27
51229;BME280;37304;52.216;6.874;2022-07-06T07:11:26;102232.78;;;17.20;91.61
51229;BME280;37304;52.216;6.874;2022-07-06T07:16:26;102227.78;;;17.46;90.45
51229;BME280;37304;52.216;6.874;2022-07-06T07:21:26;102231.81;;;17.61;87.96
51229;BME280;37304;52.216;6.874;2022-07-06T07:26:27;102237.19;;;17.57;87.80
51229;BME280;37304;52.216;6.874;2022-07-06T07:31:27;102237.13;;;17.60;82.13
51229;BME280;37304;52.216;6.874;2022-07-06T07:36:27;102240.56;;;17.62;85.09
51229;BME280;37304;52.216;6.874;2022-07-06T07:41:28;102240.28;;;17.73;78.31
51229;BME280;37304;52.216;6.874;2022-07-06T07:46:28;102236.34;;;17.91;74.65
51229;BME280;37304;52.216;6.874;2022-07-06T07:51:28;102240.91;;;18.19;72.23
51229;BME280;37304;52.216;6.874;2022-07-06T07:56:29;102229.81;;;18.08;71.67
51229;BME280;37304;52.216;6.874;2022-07-06T08:01:29;102235.44;;;17.92;72.65
51229;BME280;37304;52.216;6.874;2022-07-06T08:06:29;102231.31;;;17.82;73.69
51229;BME280;37304;52.216;6.874;2022-07-06T08:11:30;102227.03;;;17.41;70.71
51229;BME280;37304;52.216;6.874;2022-07-06T08:16:30;102226.78;;;17.51;71.21
51229;BME280;37304;52.216;6.874;2022-07-06T08:21:31;102234.81;;;17.46;71.14
51229;BME280;37304;52.216;6.874;2022-07-06T08:26:32;102229.50;;;18.20;69.85
51229;BME280;37304;52.216;6.874;2022-07-06T08:31:32;102235.34;;;18.95;68.11
51229;BME280;37304;52.216;6.874;2022-07-06T08:36:34;102235.00;;;19.07;65.18
51229;BME280;37304;52.216;6.874;2022-07-06T08:41:36;102229.25;;;19.23;63.82
51229;BME280;37304;52.216;6.874;2022-07-06T08:46:40;102227.00;;;19.10;63.00
51229;BME280;37304;52.216;6.874;2022-07-06T08:51:41;102228.19;;;19.00;63.19
51229;BME280;37304;52.216;6.874;2022-07-06T08:56:41;102230.75;;;18.70;64.50
51229;BME280;37304;52.216;6.874;2022-07-06T09:01:42;102237.53;;;19.10;64.49
51229;BME280;37304;52.216;6.874;2022-07-06T09:06:46;102228.47;;;18.89;63.71
51229;BME280;37304;52.216;6.874;2022-07-06T09:11:46;102225.09;;;19.42;62.63
51229;BME280;37304;52.216;6.874;2022-07-06T09:16:51;102208.88;;;19.55;59.21
51229;BME280;37304;52.216;6.874;2022-07-06T09:21:52;102225.06;;;19.71;61.73
51229;BME280;37304;52.216;6.874;2022-07-06T09:26:58;102216.69;;;20.12;64.81
51229;BME280;37304;52.216;6.874;2022-07-06T09:32:01;102224.50;;;20.15;63.39
51229;BME280;37304;52.216;6.874;2022-07-06T09:37:02;102230.88;;;20.09;63.89
51229;BME280;37304;52.216;6.874;2022-07-06T09:42:04;102221.50;;;19.73;61.72
51229;BME280;37304;52.216;6.874;2022-07-06T09:47:09;102235.28;;;20.08;61.32
51229;BME280;37304;52.216;6.874;2022-07-06T09:52:10;102228.56;;;20.25;59.33
51229;BME280;37304;52.216;6.874;2022-07-06T09:57:10;102219.97;;;21.37;58.10
51229;BME280;37304;52.216;6.874;2022-07-06T10:02:12;102237.91;;;21.51;58.54
51229;BME280;37304;52.216;6.874;2022-07-06T10:07:14;102227.53;;;22.52;59.32
51229;BME280;37304;52.216;6.874;2022-07-06T10:12:16;102232.00;;;22.90;53.15
51229;BME280;37304;52.216;6.874;2022-07-06T10:17:17;102232.28;;;24.11;52.21
51229;BME280;37304;52.216;6.874;2022-07-06T10:22:18;102229.81;;;23.36;51.72
51229;BME280;37304;52.216;6.874;2022-07-06T10:27:20;102224.81;;;23.30;50.53
51229;BME280;37304;52.216;6.874;2022-07-06T10:32:22;102231.06;;;22.72;50.30
51229;BME280;37304;52.216;6.874;2022-07-06T10:37:27;102236.00;;;22.19;53.20
51229;BME280;37304;52.216;6.874;2022-07-06T10:47:43;102225.59;;;22.35;51.78
51229;BME280;37304;52.216;6.874;2022-07-06T10:52:58;102218.84;;;22.48;50.45
51229;BME280;37304;52.216;6.874;2022-07-06T10:57:59;102215.09;;;23.83;49.43
51229;BME280;37304;52.216;6.874;2022-07-06T11:08:45;102213.00;;;23.90;46.86
51229;BME280;37304;52.216;6.874;2022-07-06T11:13:49;102213.53;;;24.14;46.28
51229;BME280;37304;52.216;6.874;2022-07-06T11:24:10;102194.34;;;23.56;45.68
51229;BME280;37304;52.216;6.874;2022-07-06T11:29:12;102205.16;;;22.38;48.27
51229;BME280;37304;52.216;6.874;2022-07-06T11:34:17;102201.56;;;22.39;48.86
51229;BME280;37304;52.216;6.874;2022-07-06T11:39:17;102192.75;;;22.39;49.59
51229;BME280;37304;52.216;6.874;2022-07-06T11:44:18;102199.34;;;22.70;48.89
51229;BME280;37304;52.216;6.874;2022-07-06T11:49:19;102193.13;;;22.31;49.67
51229;BME280;37304;52.216;6.874;2022-07-06T11:54:22;102195.63;;;22.14;50.73
51229;BME280;37304;52.216;6.874;2022-07-06T11:59:34;102190.06;;;23.89;47.53
51229;BME280;37304;52.216;6.874;2022-07-06T12:04:42;102170.03;;;24.83;44.28
51229;BME280;37304;52.216;6.874;2022-07-06T12:09:44;102167.25;;;26.50;42.33
51229;BME280;37304;52.216;6.874;2022-07-06T12:14:44;102159.81;;;26.70;38.99
51229;BME280;37304;52.216;6.874;2022-07-06T12:19:53;102166.59;;;25.74;40.44
51229;BME280;37304;52.216;6.874;2022-07-06T12:24:54;102158.03;;;24.76;43.18
51229;BME280;37304;52.216;6.874;2022-07-06T12:30:10;102154.03;;;24.35;44.82
51229;BME280;37304;52.216;6.874;2022-07-06T12:35:11;102127.41;;;26.49;42.50
51229;BME280;37304;52.216;6.874;2022-07-06T12:40:12;102129.91;;;27.73;41.55
51229;BME280;37304;52.216;6.874;2022-07-06T12:45:13;102124.66;;;27.71;38.47
51229;BME280;37304;52.216;6.874;2022-07-06T12:50:14;102134.56;;;26.34;39.61
51229;BME280;37304;52.216;6.874;2022-07-06T12:55:14;102131.78;;;24.85;39.69
51229;BME280;37304;52.216;6.874;2022-07-06T13:00:16;102142.47;;;24.36;41.00
51229;BME280;37304;52.216;6.874;2022-07-06T13:05:17;102140.28;;;24.10;41.98
51229;BME280;37304;52.216;6.874;2022-07-06T13:10:17;102151.91;;;23.56;41.47
51229;BME280;37304;52.216;6.874;2022-07-06T13:15:18;102146.41;;;23.24;43.19
51229;BME280;37304;52.216;6.874;2022-07-06T13:20:18;102142.03;;;23.41;43.97
51229;BME280;37304;52.216;6.874;2022-07-06T13:25:19;102144.22;;;23.85;43.26
51229;BME280;37304;52.216;6.874;2022-07-06T13:30:19;102137.13;;;25.77;40.97
51229;BME280;37304;52.216;6.874;2022-07-06T13:35:20;102121.13;;;24.69;41.62
51229;BME280;37304;52.216;6.874;2022-07-06T13:40:21;102114.66;;;24.75;41.44
51229;BME280;37304;52.216;6.874;2022-07-06T13:45:21;102123.53;;;24.58;41.21
51229;BME280;37304;52.216;6.874;2022-07-06T13:50:21;102121.53;;;25.85;40.70
51229;BME280;37304;52.216;6.874;2022-07-06T13:55:22;102110.72;;;26.45;37.14
51229;BME280;37304;52.216;6.874;2022-07-06T14:00:22;102103.53;;;25.29;39.87
51229;BME280;37304;52.216;6.874;2022-07-06T14:05:23;102091.72;;;26.37;40.30
51229;BME280;37304;52.216;6.874;2022-07-06T14:10:23;102083.59;;;26.53;39.47
51229;BME280;37304;52.216;6.874;2022-07-06T14:15:24;102086.50;;;26.06;38.41
51229;BME280;37304;52.216;6.874;2022-07-06T14:20:24;102085.72;;;25.46;39.77
51229;BME280;37304;52.216;6.874;2022-07-06T14:25:24;102080.47;;;25.44;40.91
51229;BME280;37304;52.216;6.874;2022-07-06T14:30:25;102066.97;;;25.33;39.25
51229;BME280;37304;52.216;6.874;2022-07-06T14:35:26;102074.19;;;25.00;38.10
51229;BME280;37304;52.216;6.874;2022-07-06T14:40:26;102069.69;;;24.86;39.51
51229;BME280;37304;52.216;6.874;2022-07-06T14:45:27;102055.19;;;24.92;39.65
51229;BME280;37304;52.216;6.874;2022-07-06T14:50:28;102047.44;;;25.04;40.44
51229;BME280;37304;52.216;6.874;2022-07-06T14:55:28;102060.91;;;25.00;40.39
51229;BME280;37304;52.216;6.874;2022-07-06T15:00:29;102051.50;;;24.79;39.59
51229;BME280;37304;52.216;6.874;2022-07-06T15:05:29;102047.41;;;24.57;40.54
51229;BME280;37304;52.216;6.874;2022-07-06T15:10:29;102045.28;;;24.48;41.00
51229;BME280;37304;52.216;6.874;2022-07-06T15:15:30;102027.19;;;24.54;41.70
51229;BME280;37304;52.216;6.874;2022-07-06T15:20:30;102029.34;;;24.48;41.68
51229;BME280;37304;52.216;6.874;2022-07-06T15:25:30;102026.69;;;24.48;41.85
51229;BME280;37304;52.216;6.874;2022-07-06T15:30:31;102014.50;;;24.43;41.98
51229;BME280;37304;52.216;6.874;2022-07-06T15:35:33;102018.50;;;23.87;41.39
51229;BME280;37304;52.216;6.874;2022-07-06T15:40:34;102017.34;;;23.75;42.71
51229;BME280;37304;52.216;6.874;2022-07-06T15:45:40;102018.44;;;23.54;43.69
51229;BME280;37304;52.216;6.874;2022-07-06T15:50:40;102011.97;;;23.07;43.83
51229;BME280;37304;52.216;6.874;2022-07-06T15:55:41;102004.97;;;23.06;44.80
51229;BME280;37304;52.216;6.874;2022-07-06T16:00:42;101997.38;;;22.63;44.78
51229;BME280;37304;52.216;6.874;2022-07-06T16:05:43;101993.53;;;22.51;45.25
51229;BME280;37304;52.216;6.874;2022-07-06T16:10:43;102005.81;;;22.16;45.30
51229;BME280;37304;52.216;6.874;2022-07-06T16:15:43;101998.25;;;22.08;46.40
51229;BME280;37304;52.216;6.874;2022-07-06T16:20:44;101984.41;;;21.82;47.03
51229;BME280;37304;52.216;6.874;2022-07-06T16:25:44;101981.56;;;21.67;47.62
51229;BME280;37304;52.216;6.874;2022-07-06T16:30:45;101980.56;;;21.70;47.92
51229;BME280;37304;52.216;6.874;2022-07-06T16:35:45;101969.97;;;21.49;48.11
51229;BME280;37304;52.216;6.874;2022-07-06T16:40:45;101966.50;;;21.49;48.66
51229;BME280;37304;52.216;6.874;2022-07-06T16:45:46;101958.59;;;21.47;49.40
51229;BME280;37304;52.216;6.874;2022-07-06T16:50:46;101964.16;;;21.22;50.06
51229;BME280;37304;52.216;6.874;2022-07-06T16:55:46;101952.16;;;21.34;50.38
51229;BME280;37304;52.216;6.874;2022-07-06T17:00:47;101950.44;;;21.33;50.69
51229;BME280;37304;52.216;6.874;2022-07-06T17:05:48;101946.16;;;21.09;50.36
51229;BME280;37304;52.216;6.874;2022-07-06T17:10:48;101945.19;;;20.91;50.48
51229;BME280;37304;52.216;6.874;2022-07-06T17:15:48;101942.31;;;20.75;51.71
51229;BME280;37304;52.216;6.874;2022-07-06T17:20:49;101924.66;;;20.76;52.56
51229;BME280;37304;52.216;6.874;2022-07-06T17:25:49;101939.03;;;20.48;60.42
51229;BME280;37304;52.216;6.874;2022-07-06T17:30:50;101930.75;;;20.13;67.38
51229;BME280;37304;52.216;6.874;2022-07-06T17:35:51;101931.13;;;20.03;73.10
51229;BME280;37304;52.216;6.874;2022-07-06T17:40:51;101923.94;;;19.83;74.55
51229;BME280;37304;52.216;6.874;2022-07-06T17:45:51;101931.06;;;19.57;70.50
51229;BME280;37304;52.216;6.874;2022-07-06T17:50:51;101936.50;;;19.53;74.01
51229;BME280;37304;52.216;6.874;2022-07-06T17:55:52;101933.53;;;19.38;77.45
51229;BME280;37304;52.216;6.874;2022-07-06T18:00:52;101929.59;;;19.26;82.21
51229;BME280;37304;52.216;6.874;2022-07-06T18:05:53;101927.44;;;19.12;86.00
51229;BME280;37304;52.216;6.874;2022-07-06T18:10:53;101922.03;;;19.15;84.18
51229;BME280;37304;52.216;6.874;2022-07-06T18:15:53;101913.22;;;19.16;83.41
51229;BME280;37304;52.216;6.874;2022-07-06T18:20:54;101908.06;;;19.13;80.67
51229;BME280;37304;52.216;6.874;2022-07-06T18:25:56;101894.56;;;18.97;78.66
51229;BME280;37304;52.216;6.874;2022-07-06T18:30:57;101909.31;;;19.03;78.87
51229;BME280;37304;52.216;6.874;2022-07-06T18:35:57;101894.25;;;19.06;78.14
51229;BME280;37304;52.216;6.874;2022-07-06T18:40:58;101886.66;;;18.97;76.98
51229;BME280;37304;52.216;6.874;2022-07-06T18:45:58;101888.28;;;19.01;75.55
51229;BME280;37304;52.216;6.874;2022-07-06T18:51:01;101897.50;;;18.88;74.08
51229;BME280;37304;52.216;6.874;2022-07-06T18:56:02;101883.56;;;18.84;73.34
51229;BME280;37304;52.216;6.874;2022-07-06T19:01:02;101882.88;;;18.79;74.48
51229;BME280;37304;52.216;6.874;2022-07-06T19:06:03;101878.81;;;18.70;75.29
51229;BME280;37304;52.216;6.874;2022-07-06T19:11:03;101875.06;;;18.76;75.33
51229;BME280;37304;52.216;6.874;2022-07-06T19:16:04;101863.13;;;18.67;74.32
51229;BME280;37304;52.216;6.874;2022-07-06T19:21:06;101869.19;;;18.69;74.92
51229;BME280;37304;52.216;6.874;2022-07-06T19:26:07;101862.94;;;18.72;75.20
51229;BME280;37304;52.216;6.874;2022-07-06T19:31:07;101867.59;;;18.63;74.70
51229;BME280;37304;52.216;6.874;2022-07-06T19:36:07;101866.88;;;18.60;75.13
51229;BME280;37304;52.216;6.874;2022-07-06T19:41:08;101859.22;;;18.52;75.14
51229;BME280;37304;52.216;6.874;2022-07-06T19:46:11;101857.53;;;18.49;76.34
51229;BME280;37304;52.216;6.874;2022-07-06T19:51:12;101853.97;;;18.52;76.79
51229;BME280;37304;52.216;6.874;2022-07-06T19:56:12;101857.41;;;18.54;76.91
51229;BME280;37304;52.216;6.874;2022-07-06T20:01:14;101845.41;;;18.45;77.00
51229;BME280;37304;52.216;6.874;2022-07-06T20:06:14;101847.06;;;18.48;78.25
51229;BME280;37304;52.216;6.874;2022-07-06T20:11:15;101849.84;;;18.43;78.51
51229;BME280;37304;52.216;6.874;2022-07-06T20:16:18;101845.69;;;18.38;79.08
51229;BME280;37304;52.216;6.874;2022-07-06T20:21:18;101848.34;;;18.36;79.82
51229;BME280;37304;52.216;6.874;2022-07-06T20:26:19;101833.44;;;18.37;81.14
51229;BME280;37304;52.216;6.874;2022-07-06T20:31:19;101833.66;;;18.29;80.56
51229;BME280;37304;52.216;6.874;2022-07-06T20:36:19;101832.13;;;18.23;81.54
51229;BME280;37304;52.216;6.874;2022-07-06T20:41:20;101826.13;;;18.18;81.77
51229;BME280;37304;52.216;6.874;2022-07-06T20:46:20;101821.59;;;18.23;83.57
51229;BME280;37304;52.216;6.874;2022-07-06T20:51:20;101819.00;;;18.22;84.00
51229;BME280;37304;52.216;6.874;2022-07-06T20:56:21;101818.13;;;18.21;83.96
51229;BME280;37304;52.216;6.874;2022-07-06T21:01:21;101817.22;;;18.22;84.80
51229;BME280;37304;52.216;6.874;2022-07-06T21:06:21;101816.63;;;18.14;84.18
51229;BME280;37304;52.216;6.874;2022-07-06T21:11:22;101815.72;;;18.15;84.78
51229;BME280;37304;52.216;6.874;2022-07-06T21:16:22;101813.38;;;18.05;87.36
51229;BME280;37304;52.216;6.874;2022-07-06T21:21:22;101814.34;;;18.03;87.77
51229;BME280;37304;52.216;6.874;2022-07-06T21:26:23;101809.25;;;17.97;88.10
51229;BME280;37304;52.216;6.874;2022-07-06T21:31:24;101798.69;;;17.98;89.04
51229;BME280;37304;52.216;6.874;2022-07-06T21:36:24;101801.56;;;17.90;90.62
51229;BME280;37304;52.216;6.874;2022-07-06T21:41:24;101793.53;;;17.95;91.22
51229;BME280;37304;52.216;6.874;2022-07-06T21:46:25;101789.25;;;17.93;93.71
51229;BME280;37304;52.216;6.874;2022-07-06T21:51:25;101778.34;;;17.76;100.00
51229;BME280;37304;52.216;6.874;2022-07-06T21:56:26;101772.47;;;17.68;100.00
51229;BME280;37304;52.216;6.874;2022-07-06T22:01:26;101761.75;;;17.74;100.00
51229;BME280;37304;52.216;6.874;2022-07-06T22:06:27;101761.00;;;17.71;100.00
51229;BME280;37304;52.216;6.874;2022-07-06T22:11:27;101754.00;;;17.70;100.00
51229;BME280;37304;52.216;6.874;2022-07-06T22:16:28;101753.06;;;17.72;100.00
51229;BME280;37304;52.216;6.874;2022-07-06T22:21:30;101752.47;;;17.64;100.00
51229;BME280;37304;52.216;6.874;2022-07-06T22:26:31;101739.69;;;17.52;100.00
51229;BME280;37304;52.216;6.874;2022-07-06T22:31:32;101737.78;;;17.57;100.00
51229;BME280;37304;52.216;6.874;2022-07-06T22:36:33;101742.19;;;17.56;100.00
51229;BME280;37304;52.216;6.874;2022-07-06T22:41:34;101731.53;;;17.61;100.00
51229;BME280;37304;52.216;6.874;2022-07-06T22:46:35;101728.81;;;17.64;100.00
51229;BME280;37304;52.216;6.874;2022-07-06T22:51:36;101726.16;;;17.64;100.00
51229;BME280;37304;52.216;6.874;2022-07-06T22:56:36;101725.38;;;17.62;100.00
51229;BME280;37304;52.216;6.874;2022-07-06T23:01:37;101712.31;;;17.59;100.00
51229;BME280;37304;52.216;6.874;2022-07-06T23:06:37;101703.53;;;17.60;100.00
51229;BME280;37304;52.216;6.874;2022-07-06T23:11:38;101696.69;;;17.54;100.00
51229;BME280;37304;52.216;6.874;2022-07-06T23:16:39;101690.50;;;17.57;100.00
51229;BME280;37304;52.216;6.874;2022-07-06T23:21:39;101694.00;;;17.56;100.00
51229;BME280;37304;52.216;6.874;2022-07-06T23:26:39;101686.50;;;17.43;100.00
51229;BME280;37304;52.216;6.874;2022-07-06T23:31:40;101671.66;;;17.42;100.00
51229;BME280;37304;52.216;6.874;2022-07-06T23:36:40;101669.72;;;17.47;100.00
51229;BME280;37304;52.216;6.874;2022-07-06T23:41:41;101667.16;;;17.46;100.00
51229;BME280;37304;52.216;6.874;2022-07-06T23:46:41;101655.19;;;17.37;100.00
51229;BME280;37304;52.216;6.874;2022-07-06T23:51:42;101653.47;;;17.36;100.00
51229;BME280;37304;52.216;6.874;2022-07-06T23:56:42;101627.19;;;17.36;100.00
